Flight Track Log - Related Links

Times and Time Zones

All times are in EDT time to prevent confusion due to time zone crossing. See the SWA2749 flight status page for this flight to view local times or setup timezone preferences in your user account.


Time Position Orientation Groundspeed Altitude Reporting Facility
EDT Latitude Longitude Course Direction KTS MPH feet Rate Location/Type
Sat 10:31:52 AM 41.7833 -87.8167 193° South 217 250 2,900  Level Chicago TRACON
Sat 10:32:52 AM 41.7333 -87.8667 217° Southwest 258 297 4,100 1,582 Climbing Chicago TRACON
Sat 10:33:23 AM 41.6969 -87.8925 208° Southwest 265 305 5,300 3,613 Climbing Chicago Center
Sat 10:34:25 AM 41.6269 -87.9447 209° Southwest 270 311 9,700 3,435 Climbing Chicago Center
Sat 10:35:27 AM 41.5494 -87.9747 196° South 294 338 12,400 2,516 Climbing Chicago Center
Sat 10:36:29 AM 41.4494 -88.0133 196° South 355 409 14,900 2,613 Climbing Chicago Center
Sat 10:37:00 AM 41.0977 -88.1161 193° South  Level FlightAware Approximate
Sat 10:37:31 AM 41.3567 -88.0464 195° South 372 428 17,800  Level Chicago Center
Sat 10:38:33 AM 41.2519 -88.0825 195° South 379 436 20,800 2,585 Climbing Chicago Center
Sat 10:39:34 AM 41.1436 -88.1150 193° South 393 452 23,100 2,098 Climbing Chicago Center
Sat 10:40:36 AM 41.0308 -88.1475 192° South 410 472 25,100 2,032 Climbing Chicago Center
Sat 10:41:38 AM 40.8892 -88.1869 192° South 430 495 27,300 1,887 Climbing Chicago Center
Sat 10:42:40 AM 40.7658 -88.2211 192° South 445 512 29,000 1,742 Climbing Chicago Center
Sat 10:43:42 AM 40.6417 -88.2558 192° South 454 522 30,900 1,452 Climbing Chicago Center
Sat 10:44:44 AM 40.5183 -88.2903 192° South 455 524 32,000 532 Climbing Chicago Center
Sat 10:45:46 AM 40.3981 -88.3258 193° South 448 516 32,000  Level Chicago Center
Sat 10:46:47 AM 40.2819 -88.3728 197° South 440 506 32,000 98 Level Chicago Center
Sat 10:47:49 AM 40.1786 -88.4517 210° Southwest 428 493 32,200 1,065 Climbing Chicago Center
Sat 10:48:51 AM 40.0742 -88.5281 209° Southwest 427 491 34,200 1,790 Climbing Chicago Center
Sat 10:49:53 AM 39.9486 -88.6097 207° Southwest 420 483 35,900 1,220 Climbing Chicago Center
Sat 10:50:49 AM 39.8617 -88.6650 206° Southwest 425 489 36,600 1,077 Climbing Kansas City Center
Sat 10:51:50 AM 39.7536 -88.7336 206° Southwest 426 490 38,000 677 Climbing Kansas City Center
Sat 10:52:53 AM 39.6478 -88.8017 206° Southwest 426 490 38,000  Level Kansas City Center
Sat 10:54:55 AM 39.4144 -88.9481 206° Southwest 425 489 38,000  Level Kansas City Center
Sat 10:55:57 AM 39.3239 -89.0047 206° Southwest 424 488 38,000  Level Kansas City Center
Sat 10:57:00 AM 39.1997 -89.0831 206° Southwest 417 480 38,000  Level Kansas City Center
Sat 10:58:01 AM 39.0967 -89.1469 206° Southwest 414 476 38,000  Level Kansas City Center
Sat 10:59:04 AM 38.9928 -89.2114 206° Southwest 414 476 38,000  Level Kansas City Center
Sat 11:00:06 AM 38.8894 -89.2761 206° Southwest 414 476 38,000  Level Kansas City Center
Sat 11:01:07 AM 38.7867 -89.3400 206° Southwest 413 475 38,000  Level Kansas City Center
Sat 11:02:10 AM 38.6839 -89.4039 206° Southwest 412 474 38,000  Level Kansas City Center
Sat 11:03:12 AM 38.5611 -89.4794 206° Southwest 411 473 38,000  Level Kansas City Center
Sat 11:04:13 AM 38.4589 -89.5419 206° Southwest 409 471 38,000  Level Kansas City Center
Sat 11:05:16 AM 38.3558 -89.6044 205° Southwest 409 471 38,000  Level Kansas City Center
Sat 11:06:19 AM 38.2539 -89.6669 206° Southwest 409 471 38,000  Level Kansas City Center
Sat 11:07:19 AM 38.1506 -89.7289 205° Southwest 409 471 38,000  Level Kansas City Center
Sat 11:08:23 AM 38.0303 -89.8028 206° Southwest 409 471 38,000  Level Kansas City Center
Sat 11:09:25 AM 37.9278 -89.8653 206° Southwest 409 471 38,000  Level Kansas City Center
Sat 11:10:25 AM 37.8208 -89.9267 204° Southwest 409 471 38,000  Level Kansas City Center
Sat 11:11:30 AM 37.7186 -89.9889 206° Southwest 408 470 38,000  Level Kansas City Center
Sat 11:12:30 AM 37.6164 -90.0500 205° Southwest 408 470 38,000  Level Kansas City Center
Sat 11:13:34 AM 37.5150 -90.1119 206° Southwest 408 470 38,000  Level Kansas City Center
Sat 11:14:34 AM 37.4125 -90.1719 205° Southwest 408 470 38,000  Level Kansas City Center
Sat 11:15:36 AM 37.3039 -90.2356 205° Southwest 407 468 38,000  Level Kansas City Center
Sat 11:16:40 AM 37.2031 -90.2944 205° Southwest 406 467 38,000  Level Kansas City Center
Sat 11:17:40 AM 37.0825 -90.3667 206° Southwest 404 465 38,000  Level Kansas City Center
Sat 11:18:44 AM 36.9814 -90.4258 205° Southwest 404 465 38,000  Level Kansas City Center
Sat 11:19:44 AM 36.8808 -90.4833 205° Southwest 403 464 38,000  Level Kansas City Center
Sat 11:20:33 AM 36.8011 -90.5300 205° Southwest 403 464 38,000  Level Memphis Center
Sat 11:21:35 AM 36.7000 -90.5889 205° Southwest 403 464 38,000  Level Memphis Center
Sat 11:22:37 AM 36.6006 -90.6458 205° Southwest 401 461 38,000  Level Memphis Center
Sat 11:23:39 AM 36.4800 -90.7158 205° Southwest 400 460 38,000  Level Memphis Center
Sat 11:24:41 AM 36.3808 -90.7736 205° Southwest 399 459 38,000  Level Memphis Center
Sat 11:25:43 AM 36.2803 -90.8308 205° Southwest 399 459 38,000  Level Memphis Center
Sat 11:26:45 AM 36.1800 -90.8892 205° Southwest 399 459 38,000  Level Memphis Center
Sat 11:27:48 AM 36.0792 -90.9450 204° Southwest 399 459 38,000  Level Memphis Center
Sat 11:28:50 AM 35.9811 -91.0011 205° Southwest 396 456 38,000  Level Memphis Center
Sat 11:29:52 AM 35.8611 -91.0700 205° Southwest 395 455 38,000  Level Memphis Center
Sat 11:30:54 AM 35.7611 -91.1272 205° Southwest 396 456 38,000  Level Memphis Center
Sat 11:31:56 AM 35.6564 -91.1861 205° Southwest 396 456 38,000  Level Memphis Center
Sat 11:32:58 AM 35.5564 -91.2419 204° Southwest 396 456 38,000  Level Memphis Center
Sat 11:34:00 AM 35.4581 -91.2972 205° Southwest 396 456 38,000  Level Memphis Center
Sat 11:35:02 AM 35.3475 -91.3578 204° Southwest 391 450 38,000  Level Memphis Center
Sat 11:36:04 AM 35.2500 -91.4125 205° Southwest 390 449 38,000  Level Memphis Center
Sat 11:37:06 AM 35.1514 -91.4683 205° Southwest 390 449 38,000  Level Memphis Center
Sat 11:38:08 AM 35.0514 -91.5231 204° Southwest 390 449 38,000  Level Memphis Center
Sat 11:39:10 AM 34.9508 -91.5786 204° Southwest 391 450 38,000  Level Memphis Center
Sat 11:40:12 AM 34.8472 -91.6358 204° Southwest 391 450 38,000  Level Memphis Center
Sat 11:41:14 AM 34.7458 -91.6911 204° Southwest 394 453 38,000  Level Memphis Center
Sat 11:42:16 AM 34.6292 -91.7561 205° Southwest 394 453 38,000  Level Memphis Center
Sat 11:43:18 AM 34.5294 -91.8111 204° Southwest 395 455 38,000  Level Memphis Center
Sat 11:44:20 AM 34.4289 -91.8650 204° Southwest 395 455 38,000  Level Memphis Center
Sat 11:45:22 AM 34.3292 -91.9189 204° Southwest 395 455 38,000  Level Memphis Center
Sat 11:46:25 AM 34.2289 -91.9739 204° Southwest 395 455 38,000  Level Memphis Center
Sat 11:47:27 AM 34.1272 -92.0278 204° Southwest 395 455 38,000  Level Memphis Center
Sat 11:48:29 AM 34.0164 -92.0889 205° Southwest 395 455 38,000  Level Memphis Center
Sat 11:49:31 AM 33.9161 -92.1425 204° Southwest 395 455 38,000  Level Memphis Center
Sat 11:50:33 AM 33.8108 -92.1839 198° South 397 457 38,000  Level Memphis Center
Sat 11:51:35 AM 33.6761 -92.2189 192° South 409 471 38,000  Level Memphis Center
Sat 11:52:37 AM 33.5678 -92.2494 193° South 405 466 38,000  Level Memphis Center
Sat 11:53:39 AM 33.4600 -92.2786 193° South 401 461 38,000  Level Memphis Center
Sat 11:54:41 AM 33.3519 -92.3083 193° South 400 460 38,000  Level Memphis Center
Sat 11:55:43 AM 33.2469 -92.3364 193° South 394 453 38,000  Level Memphis Center
Sat 11:56:45 AM 33.1411 -92.3656 193° South 394 453 38,000  Level Memphis Center
Sat 11:57:19 AM 33.0722 -92.3819 191° South 389 448 38,000  Level Fort Worth Center
Sat 11:58:21 AM 32.9597 -92.4128 193° South 383 441 38,000  Level Fort Worth Center
Sat 11:59:23 AM 32.8708 -92.4367 193° South 384 442 38,000  Level Fort Worth Center
Sat 12:00:26 PM 32.7469 -92.4703 193° South 384 442 38,000  Level Fort Worth Center
Sat 12:01:28 PM 32.6436 -92.4981 193° South 383 441 38,000  Level Fort Worth Center
Sat 12:02:30 PM 32.5386 -92.5256 192° South 383 441 38,000  Level Fort Worth Center
Sat 12:03:32 PM 32.4356 -92.5533 193° South 382 440 38,000  Level Fort Worth Center
Sat 12:04:34 PM 32.3464 -92.6303 216° Southwest 348 400 38,000  Level Fort Worth Center
Sat 12:05:36 PM 32.2733 -92.7058 221° Southwest 348 400 38,000  Level Fort Worth Center
Sat 12:06:38 PM 32.2006 -92.7819 222° Southwest 349 402 38,000  Level Fort Worth Center
Sat 12:07:40 PM 32.1258 -92.8597 221° Southwest 354 407 38,000  Level Fort Worth Center
Sat 12:08:43 PM 32.0369 -92.9536 222° Southwest 357 411 38,000  Level Fort Worth Center
Sat 12:09:45 PM 31.9617 -93.0319 221° Southwest 359 413 38,000  Level Fort Worth Center
Sat 12:10:47 PM 31.8856 -93.1083 220° Southwest 360 414 38,000  Level Fort Worth Center
Sat 12:11:49 PM 31.8100 -93.1878 222° Southwest 365 420 38,000  Level Fort Worth Center
Sat 12:12:51 PM 31.7331 -93.2653 221° Southwest 366 421 38,000  Level Fort Worth Center
Sat 12:13:53 PM 31.6439 -93.3583 222° Southwest 361 415 38,000  Level Fort Worth Center
Sat 12:14:55 PM 31.5689 -93.4336 221° Southwest 359 413 38,000  Level Fort Worth Center
Sat 12:15:57 PM 31.4947 -93.5089 221° Southwest 356 410 38,000  Level Fort Worth Center
Sat 12:16:59 PM 31.4206 -93.5853 221° Southwest 355 409 38,000  Level Fort Worth Center
Sat 12:18:02 PM 31.3456 -93.6600 220° Southwest 355 409 38,000  Level Fort Worth Center
Sat 12:19:04 PM 31.2700 -93.7375 221° Southwest 358 412 38,000  Level Fort Worth Center
Sat 12:20:20 PM 31.1622 -93.8481 221° Southwest 357 411 38,000  Level Houston Center
Sat 12:21:22 PM 31.0900 -93.9214 221° Southwest 357 411 38,000 -816 Level Houston Center
Sat 12:22:25 PM 31.0147 -93.9967 221° Southwest 358 412 36,300 -2,256 Descending Houston Center
Sat 12:23:27 PM 30.9383 -94.0733 221° Southwest 356 410 33,300 -2,516 Descending Houston Center
Sat 12:24:29 PM 30.8653 -94.1467 221° Southwest 352 405 31,100 -2,274 Descending Houston Center
Sat 12:25:31 PM 30.7789 -94.2347 221° Southwest 349 402 28,600 -2,274 Descending Houston Center
Sat 12:26:33 PM 30.7058 -94.3042 219° Southwest 343 395 26,400 -2,188 Descending Houston Center
Sat 12:26:56 PM 30.6747 -94.3381 223° Southwest 339 390 25,500 -1,935 Descending Houston Center
Sat 12:27:35 PM 30.6375 -94.3736 219° Southwest 330 380 24,400 -2,025 Descending Houston Center
Sat 12:28:16 PM 30.5867 -94.4250 221° Southwest 325 374 22,800 -1,905 Descending Houston Center
Sat 12:28:38 PM 30.5694 -94.4408 218° Southwest 325 374 22,400 -1,869 Descending Houston Center
Sat 12:29:17 PM 30.5197 -94.4922 222° Southwest 307 353 20,900 -1,839 Descending Houston Center
Sat 12:29:40 PM 30.5042 -94.5058 217° Southwest 305 351 20,500 -1,770 Descending Houston Center
Sat 12:30:18 PM 30.4639 -94.5650 232° Southwest 297 342 19,100 -1,839 Descending Houston Center
Sat 12:30:42 PM 30.4531 -94.5831 235° Southwest 299 344 18,600 -2,066 Descending Houston Center
Sat 12:31:19 PM 30.4106 -94.6444 231° Southwest 300 345 17,000 -1,839 Descending Houston Center
Sat 12:31:44 PM 30.4022 -94.6603 239° Southwest 299 344 16,700 -1,970 Descending Houston Center
Sat 12:32:26 PM 30.3558 -94.7314 233° Southwest 305 351 14,800 -2,323 Descending Houston Center
Sat 12:32:46 PM 30.3419 -94.7547 235° Southwest 301 346 14,300 -2,164 Descending Houston Center
Sat 12:33:27 PM 30.3031 -94.8156 233° Southwest 306 352 12,600 -2,032 Descending Houston Center
Sat 12:33:48 PM 30.2914 -94.8325 231° Southwest 303 349 12,200 -1,929 Descending Houston Center
Sat 12:34:23 PM 30.2592 -94.8842 234° Southwest 305 351 10,800 -1,905 Descending Houston Center
Sat 12:34:51 PM 30.2406 -94.9122 232° Southwest 304 350 10,200 -787 Descending Houston Center
Sat 12:35:24 PM 30.2058 -94.9658 233° Southwest 303 349 10,000 -97 Descending Houston Center
Sat 12:35:53 PM 30.1897 -94.9872 229° Southwest 302 348 10,100  Climbing Houston Center
Sat 12:36:25 PM 30.1544 -95.0447 235° Southwest 298 343 10,000  Descending Houston Center
Sat 12:36:55 PM 30.1392 -95.0631 226° Southwest 301 346 10,100  Climbing Houston Center
Sat 12:37:26 PM 30.0836 -95.0944 206° Southwest 302 348 10,000  Descending Houston Center
Sat 12:37:57 PM 30.0456 -95.1083 198° South 300 345 10,100  Climbing Houston Center
Sat 12:38:27 PM 30.0067 -95.1258 201° Southwest 278 320 10,000  Descending Houston Center
Sat 12:38:59 PM 29.9736 -95.1397 200° South 280 322 10,100  Climbing Houston Center
Sat 12:39:28 PM 29.9339 -95.1564 200° South 266 306 10,000 -97 Descending Houston Center
Sat 12:40:01 PM 29.9047 -95.1692 201° Southwest 267 307 10,000 -871 Level Houston Center
Sat 12:40:30 PM 29.8653 -95.1867 201° Southwest 270 311 9,100 -1,333 Descending Houston Center
Sat 12:41:04 PM 29.8347 -95.1997 200° South 267 307 8,600 -1,200 Descending Houston Center
Sat 12:41:25 PM 29.8006 -95.2136 199° South 260 299 8,000 -1,355 Descending Houston Center
Sat 12:42:06 PM 29.7681 -95.2275 200° South 258 297 7,200 -1,574 Descending Houston Center
Sat 12:42:26 PM 29.7311 -95.2342 189° South 261 300 6,400 -1,161 Descending Houston Center
Sat 12:43:08 PM 29.6831 -95.2347 181° South 256 295 6,000 -393 Descending Houston Center
Sat 12:43:27 PM 29.6558 -95.2361 183° South 255 293 6,000  Level Houston Center
Sat 12:44:10 PM 29.6150 -95.2369 181° South 256 295 6,000  Level Houston Center
Sat 12:44:28 PM 29.5869 -95.2422 189° South 256 295 6,000 -194 Level Houston Center
Sat 12:45:12 PM 29.5597 -95.2736 225° Southwest 246 283 5,800 -885 Descending Houston Center
Sat 12:45:29 PM 29.5414 -95.2956 226° Southwest 215 247 5,100 -1,548 Descending Houston Center
Sat 12:46:14 PM 29.5186 -95.3233 227° Southwest 220 253 4,200 -1,574 Descending Houston Center
Sat 12:46:30 PM 29.5044 -95.3481 237° Southwest 220 253 3,500 -1,238 Descending Houston Center
Sat 12:47:17 PM 29.5328 -95.3886 309° West 234 269 2,900 -885 Descending Houston Center
Sat 12:47:31 PM 29.5475 -95.3839 16° North 213 245 2,600 -1,258 Descending Houston Center
Sat 12:48:19 PM 29.5775 -95.3525 42° Northeast 212 244 1,600 -1,180 Descending Houston Center
Sat 12:48:32 PM 29.5878 -95.3428 39° Northeast 185 213 1,400 -774 Descending Houston Center
Sat 12:49:21 PM 29.6117 -95.3147 46° Northeast 187 215 800 -787 Descending Houston Center
Sat 12:49:33 PM 29.6183 -95.3081 41° Northeast 140 161 600 -1,000 Descending Houston Center

Login

Don't have an account? Register now (free) for customized features, flight alerts, and more!